sensor_id;sensor_type;location;lat;lon;timestamp;temperature;humidity
13186;DHT22;6658;53.080;7.428;2023-05-19T00:01:07;7.30;99.90
13186;DHT22;6658;53.080;7.428;2023-05-19T00:03:34;7.30;99.90
13186;DHT22;6658;53.080;7.428;2023-05-19T00:06:06;7.20;99.90
13186;DHT22;6658;53.080;7.428;2023-05-19T00:08:37;7.20;99.90
13186;DHT22;6658;53.080;7.428;2023-05-19T00:11:03;7.20;99.90
13186;DHT22;6658;53.080;7.428;2023-05-19T00:13:29;7.20;99.90
13186;DHT22;6658;53.080;7.428;2023-05-19T00:15:55;7.10;99.90
13186;DHT22;6658;53.080;7.428;2023-05-19T00:18:21;7.10;99.90
13186;DHT22;6658;53.080;7.428;2023-05-19T00:20:46;7.10;99.90
13186;DHT22;6658;53.080;7.428;2023-05-19T00:23:12;7.10;99.90
13186;DHT22;6658;53.080;7.428;2023-05-19T00:25:38;7.10;99.90
13186;DHT22;6658;53.080;7.428;2023-05-19T00:28:04;7.00;99.90
13186;DHT22;6658;53.080;7.428;2023-05-19T00:30:29;7.00;99.90
13186;DHT22;6658;53.080;7.428;2023-05-19T00:32:55;7.00;99.90
13186;DHT22;6658;53.080;7.428;2023-05-19T00:35:22;7.00;99.90
13186;DHT22;6658;53.080;7.428;2023-05-19T00:37:51;7.00;99.90
13186;DHT22;6658;53.080;7.428;2023-05-19T00:40:17;7.00;99.90
13186;DHT22;6658;53.080;7.428;2023-05-19T00:42:43;7.00;99.90
13186;DHT22;6658;53.080;7.428;2023-05-19T00:45:08;7.00;99.90
13186;DHT22;6658;53.080;7.428;2023-05-19T00:47:35;7.00;99.90
13186;DHT22;6658;53.080;7.428;2023-05-19T00:50:00;7.00;99.90
13186;DHT22;6658;53.080;7.428;2023-05-19T00:52:26;7.00;99.90
13186;DHT22;6658;53.080;7.428;2023-05-19T00:54:53;7.00;99.90
13186;DHT22;6658;53.080;7.428;2023-05-19T00:57:19;6.90;99.90
13186;DHT22;6658;53.080;7.428;2023-05-19T00:59:47;6.90;99.90
13186;DHT22;6658;53.080;7.428;2023-05-19T01:02:13;6.80;99.90
13186;DHT22;6658;53.080;7.428;2023-05-19T01:04:40;6.80;99.90
13186;DHT22;6658;53.080;7.428;2023-05-19T01:07:06;6.70;99.90
13186;DHT22;6658;53.080;7.428;2023-05-19T01:09:32;6.70;99.90
13186;DHT22;6658;53.080;7.428;2023-05-19T01:11:59;6.70;99.90
13186;DHT22;6658;53.080;7.428;2023-05-19T01:14:25;6.70;99.90
13186;DHT22;6658;53.080;7.428;2023-05-19T01:17:08;6.60;99.90
13186;DHT22;6658;53.080;7.428;2023-05-19T01:30:53;6.50;99.90
13186;DHT22;6658;53.080;7.428;2023-05-19T01:33:22;6.50;99.90
13186;DHT22;6658;53.080;7.428;2023-05-19T01:35:48;6.40;99.90
13186;DHT22;6658;53.080;7.428;2023-05-19T01:38:16;6.30;99.90
13186;DHT22;6658;53.080;7.428;2023-05-19T01:40:44;6.20;99.90
13186;DHT22;6658;53.080;7.428;2023-05-19T01:43:18;6.20;99.90
13186;DHT22;6658;53.080;7.428;2023-05-19T01:45:45;6.20;99.90
13186;DHT22;6658;53.080;7.428;2023-05-19T01:48:11;6.10;99.90
13186;DHT22;6658;53.080;7.428;2023-05-19T01:50:37;6.20;99.90
13186;DHT22;6658;53.080;7.428;2023-05-19T01:53:04;6.20;99.90
13186;DHT22;6658;53.080;7.428;2023-05-19T01:55:29;6.20;99.90
13186;DHT22;6658;53.080;7.428;2023-05-19T02:00:59;6.00;99.90
13186;DHT22;6658;53.080;7.428;2023-05-19T02:06:45;5.80;99.90
13186;DHT22;6658;53.080;7.428;2023-05-19T02:12:23;5.70;99.90
13186;DHT22;6658;53.080;7.428;2023-05-19T02:15:08;5.60;99.90
13186;DHT22;6658;53.080;7.428;2023-05-19T02:17:37;5.70;99.90
13186;DHT22;6658;53.080;7.428;2023-05-19T02:20:06;5.70;99.90
13186;DHT22;6658;53.080;7.428;2023-05-19T02:22:34;5.70;99.90
13186;DHT22;6658;53.080;7.428;2023-05-19T02:25:00;5.80;99.90
13186;DHT22;6658;53.080;7.428;2023-05-19T02:27:25;5.80;99.90
13186;DHT22;6658;53.080;7.428;2023-05-19T02:29:51;5.80;99.90
13186;DHT22;6658;53.080;7.428;2023-05-19T02:32:17;5.80;99.90
13186;DHT22;6658;53.080;7.428;2023-05-19T02:34:43;5.70;99.90
13186;DHT22;6658;53.080;7.428;2023-05-19T02:37:12;5.70;99.90
13186;DHT22;6658;53.080;7.428;2023-05-19T02:39:39;5.70;99.90
13186;DHT22;6658;53.080;7.428;2023-05-19T02:42:05;5.70;99.90
13186;DHT22;6658;53.080;7.428;2023-05-19T02:44:31;5.70;99.90
13186;DHT22;6658;53.080;7.428;2023-05-19T02:46:56;5.60;99.90
13186;DHT22;6658;53.080;7.428;2023-05-19T02:49:22;5.60;99.90
13186;DHT22;6658;53.080;7.428;2023-05-19T02:51:48;5.60;99.90
13186;DHT22;6658;53.080;7.428;2023-05-19T02:54:13;5.60;99.90
13186;DHT22;6658;53.080;7.428;2023-05-19T02:56:39;5.60;99.90
13186;DHT22;6658;53.080;7.428;2023-05-19T02:59:05;5.60;99.90
13186;DHT22;6658;53.080;7.428;2023-05-19T03:01:30;5.70;99.90
13186;DHT22;6658;53.080;7.428;2023-05-19T03:03:57;5.70;99.90
13186;DHT22;6658;53.080;7.428;2023-05-19T03:06:23;5.70;99.90
13186;DHT22;6658;53.080;7.428;2023-05-19T03:08:49;5.70;99.90
13186;DHT22;6658;53.080;7.428;2023-05-19T03:11:15;5.80;99.90
13186;DHT22;6658;53.080;7.428;2023-05-19T03:13:41;5.80;99.90
13186;DHT22;6658;53.080;7.428;2023-05-19T03:16:06;5.80;99.90
13186;DHT22;6658;53.080;7.428;2023-05-19T03:18:33;5.90;99.90
13186;DHT22;6658;53.080;7.428;2023-05-19T03:20:59;5.80;99.90
13186;DHT22;6658;53.080;7.428;2023-05-19T03:23:25;5.90;99.90
13186;DHT22;6658;53.080;7.428;2023-05-19T03:25:51;5.90;99.90
13186;DHT22;6658;53.080;7.428;2023-05-19T03:28:18;5.90;99.90
13186;DHT22;6658;53.080;7.428;2023-05-19T03:30:44;5.90;99.90
13186;DHT22;6658;53.080;7.428;2023-05-19T03:33:10;5.90;99.90
13186;DHT22;6658;53.080;7.428;2023-05-19T03:35:36;5.90;99.90
13186;DHT22;6658;53.080;7.428;2023-05-19T03:38:02;6.00;99.90
13186;DHT22;6658;53.080;7.428;2023-05-19T03:40:28;6.00;99.90
13186;DHT22;6658;53.080;7.428;2023-05-19T03:42:53;6.00;99.90
13186;DHT22;6658;53.080;7.428;2023-05-19T03:45:19;6.10;99.90
13186;DHT22;6658;53.080;7.428;2023-05-19T03:47:45;6.10;99.90
13186;DHT22;6658;53.080;7.428;2023-05-19T03:50:12;6.20;99.90
13186;DHT22;6658;53.080;7.428;2023-05-19T03:52:38;6.20;99.90
13186;DHT22;6658;53.080;7.428;2023-05-19T03:55:05;6.20;99.90
13186;DHT22;6658;53.080;7.428;2023-05-19T03:57:31;6.30;99.90
13186;DHT22;6658;53.080;7.428;2023-05-19T03:59:58;6.30;99.90
13186;DHT22;6658;53.080;7.428;2023-05-19T04:02:29;6.40;99.90
13186;DHT22;6658;53.080;7.428;2023-05-19T04:04:55;6.50;99.90
13186;DHT22;6658;53.080;7.428;2023-05-19T04:07:22;6.50;99.90
13186;DHT22;6658;53.080;7.428;2023-05-19T04:09:48;6.60;99.90
13186;DHT22;6658;53.080;7.428;2023-05-19T04:12:14;6.60;99.90
13186;DHT22;6658;53.080;7.428;2023-05-19T04:14:40;6.60;99.90
13186;DHT22;6658;53.080;7.428;2023-05-19T04:17:06;6.70;99.90
13186;DHT22;6658;53.080;7.428;2023-05-19T04:19:31;6.80;99.90
13186;DHT22;6658;53.080;7.428;2023-05-19T04:21:57;6.80;99.90
13186;DHT22;6658;53.080;7.428;2023-05-19T04:24:23;7.00;99.90
13186;DHT22;6658;53.080;7.428;2023-05-19T04:26:49;7.30;99.90
13186;DHT22;6658;53.080;7.428;2023-05-19T04:29:15;7.70;99.90
13186;DHT22;6658;53.080;7.428;2023-05-19T04:31:43;8.10;99.90
13186;DHT22;6658;53.080;7.428;2023-05-19T04:34:09;8.40;99.90
13186;DHT22;6658;53.080;7.428;2023-05-19T04:36:35;8.60;99.90
13186;DHT22;6658;53.080;7.428;2023-05-19T04:39:01;8.90;99.90
13186;DHT22;6658;53.080;7.428;2023-05-19T04:41:28;9.30;99.90
13186;DHT22;6658;53.080;7.428;2023-05-19T04:43:54;9.50;99.90
13186;DHT22;6658;53.080;7.428;2023-05-19T04:46:22;9.80;99.90
13186;DHT22;6658;53.080;7.428;2023-05-19T04:48:49;10.00;99.90
13186;DHT22;6658;53.080;7.428;2023-05-19T04:51:15;10.40;99.90
13186;DHT22;6658;53.080;7.428;2023-05-19T04:53:41;10.80;99.90
13186;DHT22;6658;53.080;7.428;2023-05-19T04:56:08;11.20;99.90
13186;DHT22;6658;53.080;7.428;2023-05-19T04:58:34;11.40;99.90
13186;DHT22;6658;53.080;7.428;2023-05-19T05:01:00;11.30;99.90
13186;DHT22;6658;53.080;7.428;2023-05-19T05:03:26;11.20;99.90
13186;DHT22;6658;53.080;7.428;2023-05-19T05:05:51;11.40;99.90
13186;DHT22;6658;53.080;7.428;2023-05-19T05:08:17;11.70;99.90
13186;DHT22;6658;53.080;7.428;2023-05-19T05:10:51;12.00;99.90
13186;DHT22;6658;53.080;7.428;2023-05-19T05:13:21;12.20;99.90
13186;DHT22;6658;53.080;7.428;2023-05-19T05:15:47;12.40;99.90
13186;DHT22;6658;53.080;7.428;2023-05-19T05:18:14;12.30;99.90
13186;DHT22;6658;53.080;7.428;2023-05-19T05:20:41;12.30;99.90
13186;DHT22;6658;53.080;7.428;2023-05-19T05:23:08;12.30;99.90
13186;DHT22;6658;53.080;7.428;2023-05-19T05:25:35;12.40;99.90
13186;DHT22;6658;53.080;7.428;2023-05-19T05:28:00;12.40;99.90
13186;DHT22;6658;53.080;7.428;2023-05-19T05:30:30;12.50;99.90
13186;DHT22;6658;53.080;7.428;2023-05-19T05:32:56;12.50;99.90
13186;DHT22;6658;53.080;7.428;2023-05-19T05:35:22;12.50;99.90
13186;DHT22;6658;53.080;7.428;2023-05-19T05:37:48;12.60;99.90
13186;DHT22;6658;53.080;7.428;2023-05-19T05:40:14;12.70;99.90
13186;DHT22;6658;53.080;7.428;2023-05-19T05:42:40;12.80;99.90
13186;DHT22;6658;53.080;7.428;2023-05-19T05:45:06;13.10;99.90
13186;DHT22;6658;53.080;7.428;2023-05-19T05:47:32;13.50;99.90
13186;DHT22;6658;53.080;7.428;2023-05-19T05:49:58;13.50;99.90
13186;DHT22;6658;53.080;7.428;2023-05-19T05:52:28;13.70;99.90
13186;DHT22;6658;53.080;7.428;2023-05-19T05:54:55;13.80;99.90
13186;DHT22;6658;53.080;7.428;2023-05-19T05:57:21;13.80;99.90
13186;DHT22;6658;53.080;7.428;2023-05-19T05:59:47;13.70;99.90
13186;DHT22;6658;53.080;7.428;2023-05-19T06:02:13;14.10;99.90
13186;DHT22;6658;53.080;7.428;2023-05-19T06:04:38;14.50;99.90
13186;DHT22;6658;53.080;7.428;2023-05-19T06:07:05;14.90;99.90
13186;DHT22;6658;53.080;7.428;2023-05-19T06:09:30;14.70;99.90
13186;DHT22;6658;53.080;7.428;2023-05-19T06:11:57;14.70;99.90
13186;DHT22;6658;53.080;7.428;2023-05-19T06:14:26;14.70;99.90
13186;DHT22;6658;53.080;7.428;2023-05-19T06:16:52;14.50;99.90
13186;DHT22;6658;53.080;7.428;2023-05-19T06:19:18;14.50;99.90
13186;DHT22;6658;53.080;7.428;2023-05-19T06:21:46;14.50;99.90
13186;DHT22;6658;53.080;7.428;2023-05-19T06:24:12;14.50;99.90
13186;DHT22;6658;53.080;7.428;2023-05-19T06:26:38;14.60;99.90
13186;DHT22;6658;53.080;7.428;2023-05-19T06:29:03;14.80;99.90
13186;DHT22;6658;53.080;7.428;2023-05-19T06:31:29;14.80;99.90
13186;DHT22;6658;53.080;7.428;2023-05-19T06:33:55;14.90;99.90
13186;DHT22;6658;53.080;7.428;2023-05-19T06:36:21;15.00;99.90
13186;DHT22;6658;53.080;7.428;2023-05-19T06:38:46;15.10;99.90
13186;DHT22;6658;53.080;7.428;2023-05-19T06:41:12;15.20;99.90
13186;DHT22;6658;53.080;7.428;2023-05-19T06:43:38;15.30;99.90
13186;DHT22;6658;53.080;7.428;2023-05-19T06:46:04;15.00;99.90
13186;DHT22;6658;53.080;7.428;2023-05-19T06:48:29;14.80;99.90
13186;DHT22;6658;53.080;7.428;2023-05-19T06:50:55;14.80;99.90
13186;DHT22;6658;53.080;7.428;2023-05-19T06:53:21;15.00;99.90
13186;DHT22;6658;53.080;7.428;2023-05-19T06:55:47;15.10;99.90
13186;DHT22;6658;53.080;7.428;2023-05-19T06:58:15;15.50;99.90
13186;DHT22;6658;53.080;7.428;2023-05-19T07:00:41;16.00;99.90
13186;DHT22;6658;53.080;7.428;2023-05-19T07:03:08;16.20;99.90
13186;DHT22;6658;53.080;7.428;2023-05-19T07:05:33;16.70;99.90
13186;DHT22;6658;53.080;7.428;2023-05-19T07:07:59;16.50;99.90
13186;DHT22;6658;53.080;7.428;2023-05-19T07:10:26;16.60;99.90
13186;DHT22;6658;53.080;7.428;2023-05-19T07:12:52;16.50;99.90
13186;DHT22;6658;53.080;7.428;2023-05-19T07:15:17;16.40;99.90
13186;DHT22;6658;53.080;7.428;2023-05-19T07:17:43;16.60;99.90
13186;DHT22;6658;53.080;7.428;2023-05-19T07:20:09;17.00;99.90
13186;DHT22;6658;53.080;7.428;2023-05-19T07:22:35;17.10;99.90
13186;DHT22;6658;53.080;7.428;2023-05-19T07:25:01;17.20;99.90
13186;DHT22;6658;53.080;7.428;2023-05-19T07:27:27;17.20;99.90
13186;DHT22;6658;53.080;7.428;2023-05-19T07:29:53;17.10;99.90
13186;DHT22;6658;53.080;7.428;2023-05-19T07:32:18;16.70;99.90
13186;DHT22;6658;53.080;7.428;2023-05-19T07:34:44;16.80;99.90
13186;DHT22;6658;53.080;7.428;2023-05-19T07:37:10;16.90;99.90
13186;DHT22;6658;53.080;7.428;2023-05-19T07:39:35;17.20;99.90
13186;DHT22;6658;53.080;7.428;2023-05-19T07:42:01;17.30;99.90
13186;DHT22;6658;53.080;7.428;2023-05-19T07:44:27;17.30;99.90
13186;DHT22;6658;53.080;7.428;2023-05-19T07:46:55;17.40;99.90
13186;DHT22;6658;53.080;7.428;2023-05-19T07:49:21;17.30;99.90
13186;DHT22;6658;53.080;7.428;2023-05-19T07:51:47;17.30;99.90
13186;DHT22;6658;53.080;7.428;2023-05-19T07:54:13;17.70;99.90
13186;DHT22;6658;53.080;7.428;2023-05-19T07:56:39;17.80;99.90
13186;DHT22;6658;53.080;7.428;2023-05-19T07:59:05;17.80;99.90
13186;DHT22;6658;53.080;7.428;2023-05-19T08:01:32;17.70;99.90
13186;DHT22;6658;53.080;7.428;2023-05-19T08:03:58;17.90;99.90
13186;DHT22;6658;53.080;7.428;2023-05-19T08:06:24;17.80;99.90
13186;DHT22;6658;53.080;7.428;2023-05-19T08:08:50;17.70;99.90
13186;DHT22;6658;53.080;7.428;2023-05-19T08:11:16;17.80;99.90
13186;DHT22;6658;53.080;7.428;2023-05-19T08:13:42;18.20;99.90
13186;DHT22;6658;53.080;7.428;2023-05-19T08:16:08;18.70;99.90
13186;DHT22;6658;53.080;7.428;2023-05-19T08:18:34;19.00;99.20
13186;DHT22;6658;53.080;7.428;2023-05-19T08:20:59;19.10;99.90
13186;DHT22;6658;53.080;7.428;2023-05-19T08:23:25;18.80;97.50
13186;DHT22;6658;53.080;7.428;2023-05-19T08:25:51;18.70;99.90
13186;DHT22;6658;53.080;7.428;2023-05-19T08:28:17;19.10;99.90
13186;DHT22;6658;53.080;7.428;2023-05-19T08:30:43;19.20;99.00
13186;DHT22;6658;53.080;7.428;2023-05-19T08:33:08;19.30;97.10
13186;DHT22;6658;53.080;7.428;2023-05-19T08:35:34;19.30;97.20
13186;DHT22;6658;53.080;7.428;2023-05-19T08:38:00;19.50;98.30
13186;DHT22;6658;53.080;7.428;2023-05-19T08:40:27;19.70;97.80
13186;DHT22;6658;53.080;7.428;2023-05-19T08:42:55;19.80;96.60
13186;DHT22;6658;53.080;7.428;2023-05-19T08:45:21;19.80;99.70
13186;DHT22;6658;53.080;7.428;2023-05-19T08:47:48;20.30;99.00
13186;DHT22;6658;53.080;7.428;2023-05-19T08:50:23;20.60;95.50
13186;DHT22;6658;53.080;7.428;2023-05-19T08:53:06;20.70;93.80
13186;DHT22;6658;53.080;7.428;2023-05-19T08:56:00;20.70;96.30
13186;DHT22;6658;53.080;7.428;2023-05-19T08:58:30;21.00;93.70
13186;DHT22;6658;53.080;7.428;2023-05-19T09:00:56;21.00;94.20
13186;DHT22;6658;53.080;7.428;2023-05-19T09:03:24;21.00;92.50
13186;DHT22;6658;53.080;7.428;2023-05-19T09:05:50;20.70;91.00
13186;DHT22;6658;53.080;7.428;2023-05-19T09:08:16;20.80;92.10
13186;DHT22;6658;53.080;7.428;2023-05-19T09:10:42;20.90;92.10
13186;DHT22;6658;53.080;7.428;2023-05-19T09:13:08;21.00;92.80
13186;DHT22;6658;53.080;7.428;2023-05-19T09:15:34;21.00;90.50
13186;DHT22;6658;53.080;7.428;2023-05-19T09:18:09;21.00;91.80
13186;DHT22;6658;53.080;7.428;2023-05-19T09:20:39;21.50;90.30
13186;DHT22;6658;53.080;7.428;2023-05-19T09:23:06;21.70;91.30
13186;DHT22;6658;53.080;7.428;2023-05-19T09:25:32;21.60;90.70
13186;DHT22;6658;53.080;7.428;2023-05-19T09:27:58;21.80;91.10
13186;DHT22;6658;53.080;7.428;2023-05-19T09:30:24;21.70;89.80
13186;DHT22;6658;53.080;7.428;2023-05-19T09:32:50;21.80;87.70
13186;DHT22;6658;53.080;7.428;2023-05-19T09:35:17;21.90;87.90
13186;DHT22;6658;53.080;7.428;2023-05-19T09:37:45;22.30;86.70
13186;DHT22;6658;53.080;7.428;2023-05-19T09:40:13;22.00;85.30
13186;DHT22;6658;53.080;7.428;2023-05-19T09:42:40;22.50;86.50
13186;DHT22;6658;53.080;7.428;2023-05-19T09:45:07;22.80;77.70
13186;DHT22;6658;53.080;7.428;2023-05-19T09:47:40;22.50;82.80
13186;DHT22;6658;53.080;7.428;2023-05-19T09:50:08;22.10;82.50
13186;DHT22;6658;53.080;7.428;2023-05-19T09:52:38;21.80;83.70
13186;DHT22;6658;53.080;7.428;2023-05-19T09:55:08;22.10;84.30
13186;DHT22;6658;53.080;7.428;2023-05-19T09:57:35;22.20;82.30
13186;DHT22;6658;53.080;7.428;2023-05-19T10:00:09;22.60;80.10
13186;DHT22;6658;53.080;7.428;2023-05-19T10:02:46;23.40;76.70
13186;DHT22;6658;53.080;7.428;2023-05-19T10:05:16;24.00;75.60
13186;DHT22;6658;53.080;7.428;2023-05-19T10:07:49;24.60;74.10
13186;DHT22;6658;53.080;7.428;2023-05-19T10:10:17;23.80;72.30
13186;DHT22;6658;53.080;7.428;2023-05-19T10:12:44;23.60;72.30
13186;DHT22;6658;53.080;7.428;2023-05-19T10:15:11;23.90;73.20
13186;DHT22;6658;53.080;7.428;2023-05-19T10:17:42;23.70;74.90
13186;DHT22;6658;53.080;7.428;2023-05-19T10:20:09;24.40;71.10
13186;DHT22;6658;53.080;7.428;2023-05-19T10:22:37;24.60;70.00
13186;DHT22;6658;53.080;7.428;2023-05-19T10:25:04;24.60;70.50
13186;DHT22;6658;53.080;7.428;2023-05-19T10:27:32;24.00;71.80
13186;DHT22;6658;53.080;7.428;2023-05-19T10:30:05;24.40;72.10
13186;DHT22;6658;53.080;7.428;2023-05-19T10:32:32;24.30;73.10
13186;DHT22;6658;53.080;7.428;2023-05-19T10:37:44;24.60;72.20
13186;DHT22;6658;53.080;7.428;2023-05-19T10:40:23;24.70;68.10
13186;DHT22;6658;53.080;7.428;2023-05-19T10:45:39;24.00;73.30
13186;DHT22;6658;53.080;7.428;2023-05-19T10:48:10;24.10;72.40
13186;DHT22;6658;53.080;7.428;2023-05-19T10:50:38;25.10;69.10
13186;DHT22;6658;53.080;7.428;2023-05-19T10:53:03;24.20;66.00
13186;DHT22;6658;53.080;7.428;2023-05-19T10:55:46;24.10;68.50
13186;DHT22;6658;53.080;7.428;2023-05-19T10:58:14;23.50;70.50
13186;DHT22;6658;53.080;7.428;2023-05-19T11:00:40;23.70;71.80
13186;DHT22;6658;53.080;7.428;2023-05-19T11:05:38;23.40;70.90
13186;DHT22;6658;53.080;7.428;2023-05-19T11:08:05;22.80;73.60
13186;DHT22;6658;53.080;7.428;2023-05-19T11:10:32;23.00;74.20
13186;DHT22;6658;53.080;7.428;2023-05-19T11:12:58;23.00;76.90
13186;DHT22;6658;53.080;7.428;2023-05-19T11:15:25;23.20;77.50
13186;DHT22;6658;53.080;7.428;2023-05-19T11:17:54;22.90;73.20
13186;DHT22;6658;53.080;7.428;2023-05-19T11:20:26;23.20;75.20
13186;DHT22;6658;53.080;7.428;2023-05-19T11:23:17;22.70;75.50
13186;DHT22;6658;53.080;7.428;2023-05-19T11:25:48;21.70;77.00
13186;DHT22;6658;53.080;7.428;2023-05-19T11:28:18;21.60;80.90
13186;DHT22;6658;53.080;7.428;2023-05-19T11:30:46;21.10;79.40
13186;DHT22;6658;53.080;7.428;2023-05-19T11:33:14;20.50;80.40
13186;DHT22;6658;53.080;7.428;2023-05-19T11:35:45;20.50;87.00
13186;DHT22;6658;53.080;7.428;2023-05-19T11:38:12;21.10;90.50
13186;DHT22;6658;53.080;7.428;2023-05-19T11:40:40;21.60;84.80
13186;DHT22;6658;53.080;7.428;2023-05-19T11:43:06;22.30;82.10
13186;DHT22;6658;53.080;7.428;2023-05-19T11:45:32;22.80;80.10
13186;DHT22;6658;53.080;7.428;2023-05-19T11:47:58;23.20;79.50
13186;DHT22;6658;53.080;7.428;2023-05-19T11:50:24;23.20;76.80
13186;DHT22;6658;53.080;7.428;2023-05-19T11:52:51;23.20;73.60
13186;DHT22;6658;53.080;7.428;2023-05-19T11:55:18;23.50;78.70
13186;DHT22;6658;53.080;7.428;2023-05-19T11:58:00;23.50;74.90
13186;DHT22;6658;53.080;7.428;2023-05-19T12:00:27;22.90;72.10
13186;DHT22;6658;53.080;7.428;2023-05-19T12:02:56;22.80;75.40
13186;DHT22;6658;53.080;7.428;2023-05-19T12:05:23;22.00;79.10
13186;DHT22;6658;53.080;7.428;2023-05-19T12:07:51;21.20;82.00
13186;DHT22;6658;53.080;7.428;2023-05-19T12:10:21;21.30;78.90
13186;DHT22;6658;53.080;7.428;2023-05-19T12:12:48;21.40;80.10
13186;DHT22;6658;53.080;7.428;2023-05-19T12:15:18;21.60;82.70
13186;DHT22;6658;53.080;7.428;2023-05-19T12:17:47;21.50;80.20
13186;DHT22;6658;53.080;7.428;2023-05-19T12:20:14;21.20;80.40
13186;DHT22;6658;53.080;7.428;2023-05-19T12:22:39;20.90;81.50
13186;DHT22;6658;53.080;7.428;2023-05-19T12:25:05;20.70;81.40
13186;DHT22;6658;53.080;7.428;2023-05-19T12:27:35;20.50;84.70
13186;DHT22;6658;53.080;7.428;2023-05-19T12:30:04;20.40;88.60
13186;DHT22;6658;53.080;7.428;2023-05-19T12:32:32;20.40;89.80
13186;DHT22;6658;53.080;7.428;2023-05-19T12:34:58;20.30;83.20
13186;DHT22;6658;53.080;7.428;2023-05-19T12:37:26;20.50;82.70
13186;DHT22;6658;53.080;7.428;2023-05-19T12:39:55;20.60;83.80
13186;DHT22;6658;53.080;7.428;2023-05-19T12:42:21;20.60;84.10
13186;DHT22;6658;53.080;7.428;2023-05-19T12:44:49;20.60;86.80
13186;DHT22;6658;53.080;7.428;2023-05-19T12:47:18;20.30;86.90
13186;DHT22;6658;53.080;7.428;2023-05-19T12:52:26;19.60;87.70
13186;DHT22;6658;53.080;7.428;2023-05-19T12:54:58;19.30;90.80
13186;DHT22;6658;53.080;7.428;2023-05-19T12:57:26;19.50;91.90
13186;DHT22;6658;53.080;7.428;2023-05-19T13:00:05;19.70;89.90
13186;DHT22;6658;53.080;7.428;2023-05-19T13:05:19;19.80;92.00
13186;DHT22;6658;53.080;7.428;2023-05-19T13:10:20;19.90;89.40
13186;DHT22;6658;53.080;7.428;2023-05-19T13:12:46;19.80;88.50
13186;DHT22;6658;53.080;7.428;2023-05-19T13:15:12;19.70;88.50
13186;DHT22;6658;53.080;7.428;2023-05-19T13:17:37;19.70;87.90
13186;DHT22;6658;53.080;7.428;2023-05-19T13:20:04;19.60;88.30
13186;DHT22;6658;53.080;7.428;2023-05-19T13:22:30;19.50;90.40
13186;DHT22;6658;53.080;7.428;2023-05-19T13:24:56;19.60;90.50
13186;DHT22;6658;53.080;7.428;2023-05-19T13:27:26;19.70;88.30
13186;DHT22;6658;53.080;7.428;2023-05-19T13:29:52;19.90;88.10
13186;DHT22;6658;53.080;7.428;2023-05-19T13:32:18;19.80;87.90
13186;DHT22;6658;53.080;7.428;2023-05-19T13:34:43;20.00;85.30
13186;DHT22;6658;53.080;7.428;2023-05-19T13:37:09;20.20;86.60
13186;DHT22;6658;53.080;7.428;2023-05-19T13:39:36;20.20;88.80
13186;DHT22;6658;53.080;7.428;2023-05-19T13:42:02;20.30;90.70
13186;DHT22;6658;53.080;7.428;2023-05-19T13:44:27;20.50;89.10
13186;DHT22;6658;53.080;7.428;2023-05-19T13:46:53;20.60;88.40
13186;DHT22;6658;53.080;7.428;2023-05-19T13:49:18;20.50;85.10
13186;DHT22;6658;53.080;7.428;2023-05-19T13:51:44;20.20;84.90
13186;DHT22;6658;53.080;7.428;2023-05-19T13:54:10;20.00;84.70
13186;DHT22;6658;53.080;7.428;2023-05-19T13:56:36;19.70;85.80
13186;DHT22;6658;53.080;7.428;2023-05-19T13:59:02;19.50;86.20
13186;DHT22;6658;53.080;7.428;2023-05-19T14:01:28;19.50;88.00
13186;DHT22;6658;53.080;7.428;2023-05-19T14:03:54;19.70;84.60
13186;DHT22;6658;53.080;7.428;2023-05-19T14:06:20;19.90;82.60
13186;DHT22;6658;53.080;7.428;2023-05-19T14:08:45;20.30;80.60
13186;DHT22;6658;53.080;7.428;2023-05-19T14:11:18;20.40;83.20
13186;DHT22;6658;53.080;7.428;2023-05-19T14:13:44;20.30;82.10
13186;DHT22;6658;53.080;7.428;2023-05-19T14:16:10;20.00;82.40
13186;DHT22;6658;53.080;7.428;2023-05-19T14:18:36;19.80;84.50
13186;DHT22;6658;53.080;7.428;2023-05-19T14:21:02;19.70;86.00
13186;DHT22;6658;53.080;7.428;2023-05-19T14:23:27;19.60;90.50
13186;DHT22;6658;53.080;7.428;2023-05-19T14:25:54;19.80;92.00
13186;DHT22;6658;53.080;7.428;2023-05-19T14:28:20;20.00;90.10
13186;DHT22;6658;53.080;7.428;2023-05-19T14:30:46;20.20;90.20
13186;DHT22;6658;53.080;7.428;2023-05-19T14:33:12;20.20;90.30
13186;DHT22;6658;53.080;7.428;2023-05-19T14:35:38;19.80;90.60
13186;DHT22;6658;53.080;7.428;2023-05-19T14:38:03;19.70;90.70
13186;DHT22;6658;53.080;7.428;2023-05-19T14:40:29;19.70;90.00
13186;DHT22;6658;53.080;7.428;2023-05-19T14:42:55;19.80;90.00
13186;DHT22;6658;53.080;7.428;2023-05-19T14:45:21;19.90;87.30
13186;DHT22;6658;53.080;7.428;2023-05-19T14:47:46;19.60;89.00
13186;DHT22;6658;53.080;7.428;2023-05-19T14:50:12;19.40;89.40
13186;DHT22;6658;53.080;7.428;2023-05-19T14:52:38;19.40;92.00
13186;DHT22;6658;53.080;7.428;2023-05-19T14:55:04;19.30;93.30
13186;DHT22;6658;53.080;7.428;2023-05-19T14:57:30;19.40;92.40
13186;DHT22;6658;53.080;7.428;2023-05-19T14:59:55;19.50;93.00
13186;DHT22;6658;53.080;7.428;2023-05-19T15:02:21;19.50;93.10
13186;DHT22;6658;53.080;7.428;2023-05-19T15:04:47;19.40;92.70
13186;DHT22;6658;53.080;7.428;2023-05-19T15:07:12;19.10;91.90
13186;DHT22;6658;53.080;7.428;2023-05-19T15:09:38;19.10;93.10
13186;DHT22;6658;53.080;7.428;2023-05-19T15:12:04;19.20;93.40
13186;DHT22;6658;53.080;7.428;2023-05-19T15:14:30;19.40;93.00
13186;DHT22;6658;53.080;7.428;2023-05-19T15:16:56;19.60;93.10
13186;DHT22;6658;53.080;7.428;2023-05-19T15:19:21;19.70;93.10
13186;DHT22;6658;53.080;7.428;2023-05-19T15:21:47;19.70;93.90
13186;DHT22;6658;53.080;7.428;2023-05-19T15:24:15;19.50;93.20
13186;DHT22;6658;53.080;7.428;2023-05-19T15:26:40;19.20;93.80
13186;DHT22;6658;53.080;7.428;2023-05-19T15:29:06;19.10;94.00
13186;DHT22;6658;53.080;7.428;2023-05-19T15:31:32;18.90;94.20
13186;DHT22;6658;53.080;7.428;2023-05-19T15:33:57;18.80;94.10
13186;DHT22;6658;53.080;7.428;2023-05-19T15:36:23;18.80;94.30
13186;DHT22;6658;53.080;7.428;2023-05-19T15:38:49;18.90;94.30
13186;DHT22;6658;53.080;7.428;2023-05-19T15:41:14;19.10;94.60
13186;DHT22;6658;53.080;7.428;2023-05-19T15:43:40;19.40;94.10
13186;DHT22;6658;53.080;7.428;2023-05-19T15:46:06;19.60;93.50
13186;DHT22;6658;53.080;7.428;2023-05-19T15:48:32;19.70;92.70
13186;DHT22;6658;53.080;7.428;2023-05-19T15:50:58;19.80;93.00
13186;DHT22;6658;53.080;7.428;2023-05-19T15:53:24;19.70;93.50
13186;DHT22;6658;53.080;7.428;2023-05-19T15:55:50;19.60;94.10
13186;DHT22;6658;53.080;7.428;2023-05-19T15:58:16;19.50;94.40
13186;DHT22;6658;53.080;7.428;2023-05-19T16:00:42;19.30;93.50
13186;DHT22;6658;53.080;7.428;2023-05-19T16:03:08;19.00;93.30
13186;DHT22;6658;53.080;7.428;2023-05-19T16:05:34;18.80;94.40
13186;DHT22;6658;53.080;7.428;2023-05-19T16:08:00;18.60;94.70
13186;DHT22;6658;53.080;7.428;2023-05-19T16:10:25;18.50;95.80
13186;DHT22;6658;53.080;7.428;2023-05-19T16:12:51;18.60;95.90
13186;DHT22;6658;53.080;7.428;2023-05-19T16:15:17;18.60;95.30
13186;DHT22;6658;53.080;7.428;2023-05-19T16:17:42;18.50;96.70
13186;DHT22;6658;53.080;7.428;2023-05-19T16:20:09;18.60;97.50
13186;DHT22;6658;53.080;7.428;2023-05-19T16:22:35;18.80;98.00
13186;DHT22;6658;53.080;7.428;2023-05-19T16:25:00;18.70;97.90